Time;durP1;ratioP1;P1;durP2;ratioP2;P2;SDS_P1;SDS_P2;PMS_P1;PMS_P2;Temp;Humidity;BMP_temperature;BMP_pressure;BME280_temperature;BME280_humidity;BME280_pressure;Samples;Min_cycle;Max_cycle;Signal;HPM_P1;HPM_P2
2022/08/29 00:01:21;;;;;;;6.57;5.97;;;;;;;17.28;80.26;98380.78;6334077;22;20007;-81
2022/08/29 00:03:48;;;;;;;6.35;5.75;;;;;;;17.17;80.15;98384.28;6335093;22;20027;-82
2022/08/29 00:06:15;;;;;;;11.27;7.50;;;;;;;16.81;81.26;98391.50;6307003;22;20312;-84
2022/08/29 00:08:42;;;;;;;8.90;8.00;;;;;;;16.47;83.24;98392.28;6334709;22;20019;-82
2022/08/29 00:11:12;;;;;;;9.27;8.27;;;;;;;16.24;84.14;98383.28;6306593;22;20015;-84
2022/08/29 00:13:39;;;;;;;10.02;7.63;;;;;;;16.35;84.49;98389.63;6335150;22;20356;-82
2022/08/29 00:16:07;;;;;;;8.77;6.88;;;;;;;16.30;84.73;98387.66;6307183;22;20067;-82
2022/08/29 00:18:35;;;;;;;6.85;5.75;;;;;;;16.34;83.93;98382.72;6335072;22;20015;-82
2022/08/29 00:21:03;;;;;;;5.35;4.82;;;;;;;16.49;83.58;98384.91;6334611;22;20041;-82
2022/08/29 00:23:30;;;;;;;3.63;3.33;;;;;;;16.54;83.30;98385.03;6334627;22;20060;-82
2022/08/29 00:25:57;;;;;;;6.05;4.97;;;;;;;16.55;83.48;98384.81;6334692;22;20025;-82
2022/08/29 00:28:25;;;;;;;8.20;5.43;;;;;;;16.48;83.53;98388.59;6332841;22;20022;-82
2022/08/29 00:30:52;;;;;;;8.40;4.68;;;;;;;16.48;83.64;98384.09;6334572;22;20011;-82
2022/08/29 00:33:18;;;;;;;5.40;4.90;;;;;;;16.53;83.54;98378.13;6334904;22;20018;-81
2022/08/29 00:35:46;;;;;;;6.18;5.57;;;;;;;16.53;83.53;98386.06;6307612;22;20046;-81
2022/08/29 00:38:16;;;;;;;7.30;5.93;;;;;;;16.50;83.78;98389.19;6334189;22;20463;-81
2022/08/29 00:40:53;;;;;;;5.47;4.65;;;;;;;16.48;83.50;98388.59;6335532;22;20007;-82
2022/08/29 00:43:29;;;;;;;4.47;4.07;;;;;;;16.50;83.32;98381.25;6334625;22;20027;-82
2022/08/29 00:46:26;;;;;;;4.55;3.67;;;;;;;16.62;83.58;98386.53;6335019;22;20019;-82
2022/08/29 00:49:10;;;;;;;5.72;4.72;;;;;;;16.62;83.01;98391.84;6302921;22;20027;-82
2022/08/29 00:51:40;;;;;;;5.13;4.32;;;;;;;16.57;83.20;98381.94;6303537;22;20017;-82
2022/08/29 00:54:10;;;;;;;3.78;3.47;;;;;;;16.67;83.05;98395.38;6299763;22;20011;-82
2022/08/29 00:56:40;;;;;;;3.13;2.83;;;;;;;16.71;83.11;98391.25;6303640;22;20027;-82
2022/08/29 00:59:21;;;;;;;3.75;3.45;;;;;;;16.70;82.45;98386.19;6303148;22;20015;-82
2022/08/29 01:01:51;;;;;;;4.10;3.70;;;;;;;16.74;82.65;98390.81;6276800;22;20301;-82
2022/08/29 01:04:20;;;;;;;4.53;3.50;;;;;;;16.77;82.36;98397.47;6303808;22;20309;-82
2022/08/29 01:06:52;;;;;;;3.50;3.20;;;;;;;16.75;82.31;98395.06;6303068;22;20019;-82
2022/08/29 01:09:20;;;;;;;4.03;3.70;;;;;;;16.59;82.22;98382.50;6303484;22;20014;-82
2022/08/29 01:14:34;;;;;;;6.72;5.28;;;;;;;16.39;83.27;98390.00;6303450;22;20023;-82
2022/08/29 01:17:08;;;;;;;6.15;5.20;;;;;;;16.36;83.48;98395.72;6302874;22;20023;-82
2022/08/29 01:19:56;;;;;;;;;;;;;;;16.35;83.45;98399.41;6304714;22;20023;-82
2022/08/29 01:22:41;;;;;;;4.95;4.45;;;;;;;16.36;83.36;98401.03;6303129;22;19915;-83
2022/08/29 01:25:16;;;;;;;7.13;4.90;;;;;;;16.33;83.37;98403.09;6302869;22;20301;-82
2022/08/29 01:27:51;;;;;;;6.40;5.80;;;;;;;16.25;83.52;98398.16;6276008;22;20329;-83
2022/08/29 01:30:18;;;;;;;5.28;4.75;;;;;;;16.24;83.91;98409.75;6305368;22;20019;-83
2022/08/29 01:32:45;;;;;;;4.20;3.70;;;;;;;16.26;83.68;98396.31;6279168;22;20015;-82
2022/08/29 01:35:13;;;;;;;5.20;3.72;;;;;;;16.24;83.62;98404.47;6278456;22;20016;-83
2022/08/29 01:37:42;;;;;;;3.97;3.58;;;;;;;16.32;83.20;98406.78;6305600;22;20019;-83
2022/08/29 01:40:11;;;;;;;4.70;3.60;;;;;;;16.26;83.56;98413.00;6305438;22;20011;-83
2022/08/29 01:42:38;;;;;;;4.95;4.45;;;;;;;16.16;83.59;98402.16;6305886;22;20027;-83
2022/08/29 01:45:06;;;;;;;4.93;4.43;;;;;;;16.24;83.32;98407.09;6305069;22;20061;-82
2022/08/29 01:47:37;;;;;;;6.45;5.75;;;;;;;16.13;83.41;98405.25;6305619;22;20621;-83
2022/08/29 01:50:13;;;;;;;7.43;6.72;;;;;;;15.88;84.61;98404.63;6305476;22;20015;-83
2022/08/29 01:52:42;;;;;;;8.77;7.20;;;;;;;15.75;85.52;98408.25;6300778;22;20424;-84
2022/08/29 01:55:09;;;;;;;8.00;6.70;;;;;;;15.53;86.16;98406.09;6305192;22;20692;-83
2022/08/29 01:57:38;;;;;;;8.90;7.00;;;;;;;15.42;86.56;98406.03;6277935;22;20023;-82
2022/08/29 02:00:09;;;;;;;8.05;5.82;;;;;;;15.41;86.79;98409.69;6278032;22;20026;-84
2022/08/29 02:02:38;;;;;;;7.07;6.38;;;;;;;15.43;86.95;98420.88;6305693;22;20011;-84
2022/08/29 02:05:07;;;;;;;8.05;5.45;;;;;;;15.37;86.86;98403.25;6305371;22;20026;-83
2022/08/29 02:07:33;;;;;;;5.28;4.78;;;;;;;15.49;86.42;98406.75;6278134;22;20015;-83
2022/08/29 02:10:00;;;;;;;6.05;5.25;;;;;;;15.45;86.24;98401.09;6305490;22;20065;-83
2022/08/29 02:12:28;;;;;;;4.95;4.55;;;;;;;15.50;85.94;98405.72;6305454;22;20387;-83
2022/08/29 02:14:55;;;;;;;4.10;3.70;;;;;;;15.59;85.63;98395.63;6304961;22;20027;-83
2022/08/29 02:17:22;;;;;;;4.30;3.90;;;;;;;15.64;85.24;98401.91;6305307;22;20433;-84
2022/08/29 02:19:49;;;;;;;3.33;3.03;;;;;;;15.72;85.18;98395.50;6305908;22;20415;-83
2022/08/29 02:22:16;;;;;;;5.72;4.07;;;;;;;15.76;85.14;98397.44;6305224;22;20023;-83
2022/08/29 02:24:42;;;;;;;4.10;3.70;;;;;;;15.81;84.96;98399.44;6304881;22;20406;-84
2022/08/29 02:27:11;;;;;;;4.22;3.53;;;;;;;15.79;84.87;98398.84;6305322;22;20023;-84
2022/08/29 02:29:38;;;;;;;3.78;3.47;;;;;;;15.88;84.92;98405.41;6305386;22;20467;-85
2022/08/29 02:32:10;;;;;;;4.18;3.63;;;;;;;15.90;84.40;98406.03;6305288;22;20023;-84
2022/08/29 02:34:39;;;;;;;4.05;3.65;;;;;;;15.86;84.18;98396.13;6304987;22;20026;-83
2022/08/29 02:37:11;;;;;;;3.25;2.95;;;;;;;15.81;84.37;98394.13;6304830;22;20389;-83
2022/08/29 02:39:38;;;;;;;4.38;3.70;;;;;;;15.78;84.09;98400.69;6305724;22;20371;-84
2022/08/29 02:42:08;;;;;;;5.18;3.72;;;;;;;15.75;83.60;98393.19;6305604;22;20337;-85
2022/08/29 02:44:38;;;;;;;4.15;3.67;;;;;;;15.76;83.53;98399.28;6278098;22;20023;-84
2022/08/29 02:47:07;;;;;;;4.40;4.00;;;;;;;15.69;83.38;98417.91;6305178;22;20015;-85
2022/08/29 02:49:37;;;;;;;6.30;5.20;;;;;;;15.51;83.61;98394.13;6305738;22;20363;-84
2022/08/29 02:52:07;;;;;;;5.03;4.53;;;;;;;15.50;83.75;98400.44;6252510;22;20077;-85
2022/08/29 02:54:34;;;;;;;7.05;5.13;;;;;;;15.44;84.20;98398.69;6248544;22;20340;-84
2022/08/29 02:57:03;;;;;;;5.07;4.63;;;;;;;15.40;84.14;98400.16;6277519;22;20444;-85
2022/08/29 02:59:30;;;;;;;5.47;4.57;;;;;;;15.31;84.92;98401.50;6305656;22;20340;-85
2022/08/29 03:01:57;;;;;;;5.13;4.63;;;;;;;15.37;85.03;98406.72;6277841;22;20025;-85
2022/08/29 03:04:24;;;;;;;4.63;3.50;;;;;;;15.36;84.49;98399.00;6305372;22;20019;-85
2022/08/29 03:06:59;;;;;;;3.85;3.25;;;;;;;15.32;84.57;98400.47;6305513;22;20344;-85
2022/08/29 03:09:28;;;;;;;4.70;4.15;;;;;;;15.35;84.46;98406.09;6304935;22;20491;-85
2022/08/29 03:11:59;;;;;;;4.68;4.28;;;;;;;15.43;84.14;98415.59;6304752;22;20335;-86
2022/08/29 03:14:26;;;;;;;6.60;5.20;;;;;;;15.29;84.50;98399.06;6305404;22;20037;-85
2022/08/29 03:16:56;;;;;;;6.00;5.40;;;;;;;15.25;85.15;98406.66;6304774;22;20015;-85
2022/08/29 03:19:26;;;;;;;5.18;4.60;;;;;;;15.22;85.34;98403.63;6278207;22;20053;-84
2022/08/29 03:21:56;;;;;;;4.90;4.25;;;;;;;15.25;85.88;98409.28;6304907;22;20383;-85
2022/08/29 03:24:29;;;;;;;3.75;3.35;;;;;;;15.38;85.61;98407.50;6278455;22;20404;-84
2022/08/29 03:26:58;;;;;;;3.92;3.35;;;;;;;15.40;84.87;98408.09;6304871;22;20019;-85
2022/08/29 03:29:25;;;;;;;3.22;2.92;;;;;;;15.53;84.71;98413.19;6305162;22;20046;-85
2022/08/29 03:31:56;;;;;;;3.92;3.45;;;;;;;15.57;84.90;98406.44;6277932;22;20019;-85
2022/08/29 03:34:31;;;;;;;3.20;2.80;;;;;;;15.59;84.25;98409.66;6278697;22;20015;-85
2022/08/29 03:36:59;;;;;;;5.78;4.13;;;;;;;15.62;83.47;98414.53;6277272;22;20105;-85
2022/08/29 03:39:26;;;;;;;2.42;2.22;;;;;;;15.68;84.03;98413.66;6304549;22;20015;-85
2022/08/29 03:41:56;;;;;;;2.80;2.53;;;;;;;15.69;83.79;98414.44;6277247;22;20008;-85
2022/08/29 03:44:26;;;;;;;2.60;2.40;;;;;;;15.71;83.40;98413.22;6277865;22;20023;-84
2022/08/29 03:46:56;;;;;;;2.92;2.28;;;;;;;15.70;83.18;98408.13;6304400;22;20326;-85
2022/08/29 03:49:25;;;;;;;3.15;2.78;;;;;;;15.75;83.00;98410.91;6277096;22;20017;-85
2022/08/29 03:51:52;;;;;;;2.70;2.50;;;;;;;15.74;82.44;98415.38;6303382;22;20078;-85
2022/08/29 03:54:27;;;;;;;3.58;2.47;;;;;;;15.76;82.48;98423.91;6248438;22;20444;-85
2022/08/29 03:56:55;;;;;;;2.70;2.33;;;;;;;15.69;82.42;98411.81;6303922;22;20444;-85
2022/08/29 03:59:23;;;;;;;2.95;2.22;;;;;;;15.61;82.36;98399.69;6277347;22;20103;-86
2022/08/29 04:02:08;;;;;;;4.38;3.50;;;;;;;15.52;82.50;98393.09;6303719;22;20048;-86
2022/08/29 04:07:55;;;;;;;5.85;5.10;;;;;;;15.37;83.10;98424.41;6303386;22;20049;-85
2022/08/29 04:10:41;;;;;;;3.53;3.20;;;;;;;15.40;83.17;98430.03;6278662;22;20383;-85
2022/08/29 04:13:18;;;;;;;3.85;2.80;;;;;;;15.39;83.21;98427.63;6303975;22;20407;-85
2022/08/29 04:15:52;;;;;;;5.28;3.92;;;;;;;15.29;82.36;98428.13;6252299;22;20015;-85
2022/08/29 04:18:21;;;;;;;5.00;4.20;;;;;;;15.23;82.63;98424.56;6277627;22;20012;-87
2022/08/29 04:20:48;;;;;;;5.72;4.78;;;;;;;15.09;82.12;98420.44;6277699;22;20023;-85
2022/08/29 04:23:17;;;;;;;6.28;4.53;;;;;;;15.15;81.65;98427.50;6303625;22;20723;-86
2022/08/29 04:25:48;;;;;;;5.20;4.60;;;;;;;15.02;81.59;98416.28;6304019;22;20011;-86
2022/08/29 04:28:16;;;;;;;5.35;4.07;;;;;;;15.02;80.82;98432.91;6276660;22;20459;-83
2022/08/29 04:30:50;;;;;;;5.68;4.78;;;;;;;15.02;80.53;98432.91;6276713;22;20015;-84
2022/08/29 04:33:22;;;;;;;5.53;4.68;;;;;;;14.85;80.63;98416.84;6305079;22;20372;-84
2022/08/29 04:35:51;;;;;;;5.55;4.50;;;;;;;14.93;80.73;98434.22;6277335;22;20073;-85
2022/08/29 04:38:18;;;;;;;5.18;3.95;;;;;;;14.88;80.66;98431.47;6251399;22;20029;-85
2022/08/29 04:40:46;;;;;;;3.92;3.40;;;;;;;15.05;81.49;98440.38;6304198;22;20019;-85
2022/08/29 04:43:15;;;;;;;5.25;3.92;;;;;;;14.96;81.16;98433.81;6276486;22;20091;-85
2022/08/29 04:45:42;;;;;;;4.82;4.13;;;;;;;14.95;79.85;98443.56;6276449;22;20025;-86
2022/08/29 04:48:11;;;;;;;4.55;3.30;;;;;;;15.06;82.45;98449.94;6303576;22;20409;-87
2022/08/29 04:50:39;;;;;;;4.00;3.60;;;;;;;14.99;79.10;98451.84;6303697;22;20050;-86
2022/08/29 04:53:08;;;;;;;3.63;3.08;;;;;;;15.07;82.48;98450.75;6271745;22;20012;-87
2022/08/29 04:55:40;;;;;;;4.65;3.35;;;;;;;15.03;81.73;98450.38;6303620;22;20019;-86
2022/08/29 04:58:12;;;;;;;4.10;3.35;;;;;;;15.08;81.97;98462.94;6303414;22;20061;-86
2022/08/29 05:00:41;;;;;;;5.22;3.10;;;;;;;15.12;81.45;98449.06;6303482;22;20050;-84
2022/08/29 05:03:08;;;;;;;4.03;3.40;;;;;;;15.20;81.62;98461.19;6303960;22;20012;-84
2022/08/29 05:05:35;;;;;;;4.70;3.80;;;;;;;15.07;78.88;98458.69;6305788;22;20023;-84
2022/08/29 05:08:02;;;;;;;6.70;4.60;;;;;;;15.06;78.36;98459.72;6279040;22;20432;-85
2022/08/29 05:10:29;;;;;;;6.60;4.30;;;;;;;15.06;77.87;98471.09;6306314;22;20042;-84
2022/08/29 05:12:58;;;;;;;5.05;4.15;;;;;;;14.89;76.57;98456.84;6278043;22;20015;-85
2022/08/29 05:15:25;;;;;;;6.72;4.53;;;;;;;14.79;77.88;98453.88;6278160;22;20352;-83
2022/08/29 05:17:53;;;;;;;6.82;4.60;;;;;;;14.73;77.76;98460.84;6279114;22;20094;-84
2022/08/29 05:20:20;;;;;;;5.15;4.05;;;;;;;14.76;77.29;98465.69;6279033;22;20042;-87
2022/08/29 05:22:47;;;;;;;5.78;4.43;;;;;;;14.77;77.02;98466.50;6279259;22;20021;-85
2022/08/29 05:25:14;;;;;;;5.05;4.18;;;;;;;14.82;77.05;98466.66;6304735;22;20033;-84
2022/08/29 05:27:45;;;;;;;4.68;3.95;;;;;;;14.81;77.96;98472.94;6304734;22;20015;-83
2022/08/29 05:30:12;;;;;;;7.35;4.20;;;;;;;14.75;77.78;98465.88;6272019;22;20015;-83
2022/08/29 05:32:39;;;;;;;7.15;4.05;;;;;;;14.61;77.71;98449.38;6305305;22;20022;-85
2022/08/29 05:35:06;;;;;;;5.45;4.25;;;;;;;14.70;77.73;98477.94;6304871;22;20046;-84
2022/08/29 05:37:32;;;;;;;7.95;4.40;;;;;;;14.65;77.75;98456.66;6304007;22;20069;-83
2022/08/29 05:39:59;;;;;;;7.55;4.47;;;;;;;14.69;76.99;98468.41;6305227;22;20470;-83
2022/08/29 05:42:26;;;;;;;5.93;3.83;;;;;;;14.70;76.97;98474.47;6304901;22;20486;-84
2022/08/29 05:44:53;;;;;;;6.57;4.07;;;;;;;14.77;77.61;98458.56;6277642;22;20019;-84
2022/08/29 05:47:20;;;;;;;5.22;3.83;;;;;;;14.91;77.12;98483.81;6277989;22;20030;-83
2022/08/29 05:49:48;;;;;;;5.35;3.78;;;;;;;14.94;76.16;98478.13;6305452;22;20019;-82
2022/08/29 05:52:19;;;;;;;6.97;4.28;;;;;;;14.93;76.67;98481.75;6276849;22;20011;-82
2022/08/29 05:54:48;;;;;;;4.82;4.30;;;;;;;14.97;76.75;98488.22;6272034;22;20015;-83
2022/08/29 05:57:20;;;;;;;7.15;4.53;;;;;;;14.93;76.46;98485.22;6303513;22;20039;-82
2022/08/29 05:59:52;;;;;;;5.85;4.20;;;;;;;14.91;76.16;98489.91;6303924;22;20041;-83
2022/08/29 06:02:21;;;;;;;7.88;4.10;;;;;;;14.90;76.18;98479.56;6277264;22;20375;-84
2022/08/29 06:04:48;;;;;;;6.28;4.18;;;;;;;14.99;76.78;98481.72;6305305;22;20019;-81
2022/08/29 06:07:16;;;;;;;7.03;4.25;;;;;;;15.09;76.25;98494.41;6303682;22;20015;-82
2022/08/29 06:09:43;;;;;;;5.70;3.80;;;;;;;14.99;76.20;98475.59;6277577;22;20023;-84
2022/08/29 06:12:13;;;;;;;5.22;4.00;;;;;;;15.00;76.25;98471.97;6304017;22;20019;-83
2022/08/29 06:14:41;;;;;;;6.20;4.43;;;;;;;15.17;75.43;98486.22;6276412;22;20016;-82
2022/08/29 06:17:16;;;;;;;4.13;3.72;;;;;;;15.26;74.07;98476.94;6303318;22;20436;-82
2022/08/29 06:19:43;;;;;;;5.80;3.95;;;;;;;15.40;74.24;98480.25;6304748;22;20019;-81
2022/08/29 06:22:10;;;;;;;7.82;4.00;;;;;;;15.55;73.93;98479.88;6277542;22;20011;-82
2022/08/29 06:24:38;;;;;;;4.82;3.45;;;;;;;15.75;74.19;98485.75;6303946;22;20453;-82
2022/08/29 06:27:05;;;;;;;5.45;3.92;;;;;;;15.86;73.56;98480.75;6304597;22;20521;-82
2022/08/29 06:29:32;;;;;;;4.18;3.05;;;;;;;16.03;73.03;98495.75;6304183;22;20019;-84
2022/08/29 06:32:09;;;;;;;3.45;2.50;;;;;;;16.36;73.04;98499.75;6278775;22;20038;-83
2022/08/29 06:34:35;;;;;;;4.13;3.10;;;;;;;16.42;71.76;98495.41;6304161;22;20019;-83
2022/08/29 06:37:02;;;;;;;5.75;3.20;;;;;;;16.56;71.06;98481.75;6304135;22;20019;-83
2022/08/29 06:39:29;;;;;;;5.05;2.90;;;;;;;16.77;69.93;98501.59;6299045;22;20015;-82
2022/08/29 06:41:56;;;;;;;3.65;3.00;;;;;;;16.93;70.30;98488.69;6274405;22;20015;-82
2022/08/29 06:44:23;;;;;;;4.55;3.38;;;;;;;16.99;69.01;98485.94;6303041;22;20015;-85
2022/08/29 06:46:50;;;;;;;4.05;2.80;;;;;;;17.13;69.04;98492.59;6274652;22;20015;-84
2022/08/29 06:49:19;;;;;;;3.65;2.42;;;;;;;17.39;70.00;98503.72;6302667;22;20047;-83
2022/08/29 06:51:50;;;;;;;4.28;2.58;;;;;;;17.54;67.72;98488.16;6302716;22;20047;-83
2022/08/29 06:54:27;;;;;;;4.53;2.90;;;;;;;17.64;67.92;98495.50;6297798;22;20060;-82
2022/08/29 06:56:55;;;;;;;5.93;3.25;;;;;;;17.69;66.46;98497.44;6274330;22;20019;-82
2022/08/29 06:59:22;;;;;;;4.00;2.67;;;;;;;17.89;68.78;98496.03;6303207;22;20432;-82
2022/08/29 07:01:49;;;;;;;3.90;2.13;;;;;;;18.20;67.20;98491.28;6300847;22;20015;-81
2022/08/29 07:04:16;;;;;;;3.03;2.22;;;;;;;18.34;65.65;98500.53;6301267;22;20631;-82
2022/08/29 07:06:46;;;;;;;2.67;2.30;;;;;;;18.51;64.74;98499.75;6302704;22;20022;-82
2022/08/29 07:09:13;;;;;;;3.28;2.50;;;;;;;18.68;65.17;98498.75;6300202;22;20027;-81
2022/08/29 07:11:41;;;;;;;3.35;2.10;;;;;;;18.83;62.92;98500.84;6301131;22;20100;-83
2022/08/29 07:14:10;;;;;;;4.55;2.50;;;;;;;18.91;62.70;98503.06;6301551;22;20023;-82
2022/08/29 07:16:37;;;;;;;2.10;1.83;;;;;;;19.15;64.88;98501.03;6301745;22;20019;-82
2022/08/29 07:19:06;;;;;;;3.35;2.20;;;;;;;19.17;60.56;98503.44;6302096;22;20019;-83
2022/08/29 07:21:34;;;;;;;4.10;2.42;;;;;;;19.16;59.98;98499.16;6303113;22;20023;-82
2022/08/29 07:24:02;;;;;;;5.18;2.85;;;;;;;19.23;62.31;98494.47;6299310;22;20015;-83
2022/08/29 07:26:40;;;;;;;5.28;2.80;;;;;;;19.22;59.66;98496.34;6301051;22;20015;-83
2022/08/29 07:29:18;;;;;;;5.83;2.70;;;;;;;19.38;58.63;98497.34;6274981;22;20015;-82
2022/08/29 07:31:46;;;;;;;2.30;2.10;;;;;;;19.65;59.69;98507.28;6274407;22;20026;-82
2022/08/29 07:34:14;;;;;;;2.53;2.00;;;;;;;19.96;63.20;98511.06;6302161;22;20019;-83
2022/08/29 07:36:41;;;;;;;3.22;1.98;;;;;;;20.08;59.81;98505.59;6277182;22;20436;-83
2022/08/29 07:39:13;;;;;;;3.58;2.33;;;;;;;20.13;56.93;98511.78;6304719;22;20027;-84
2022/08/29 07:41:43;;;;;;;2.40;1.98;;;;;;;20.26;57.06;98514.03;6277371;22;20015;-83
2022/08/29 07:44:12;;;;;;;3.83;2.17;;;;;;;20.44;58.92;98510.22;6304549;22;20023;-83
2022/08/29 07:46:39;;;;;;;3.72;2.40;;;;;;;20.41;56.22;98516.06;6278213;22;20026;-81
2022/08/29 07:49:07;;;;;;;3.33;1.80;;;;;;;20.58;57.93;98516.78;6305158;22;20019;-84
2022/08/29 07:51:34;;;;;;;3.60;2.30;;;;;;;20.73;56.96;98531.28;6304291;22;20309;-82
2022/08/29 07:54:02;;;;;;;3.65;2.35;;;;;;;20.90;55.93;98523.94;6300305;22;20026;-84
2022/08/29 07:56:40;;;;;;;2.83;2.17;;;;;;;21.04;56.57;98527.75;6304671;22;20432;-85
2022/08/29 07:59:07;;;;;;;3.83;2.10;;;;;;;21.09;55.22;98517.13;6278273;22;20436;-83
2022/08/29 08:01:34;;;;;;;3.17;1.67;;;;;;;21.22;55.65;98520.41;6278084;22;20023;-84
2022/08/29 08:04:02;;;;;;;2.88;2.13;;;;;;;21.23;54.52;98519.34;6302187;22;20026;-84
2022/08/29 08:06:29;;;;;;;2.35;1.83;;;;;;;21.47;56.20;98530.44;6303803;22;20766;-83
2022/08/29 08:08:56;;;;;;;2.38;1.98;;;;;;;21.48;54.37;98516.84;6303986;22;20514;-84
2022/08/29 08:11:25;;;;;;;3.17;2.20;;;;;;;21.59;54.35;98521.19;6304228;22;20019;-84
2022/08/29 08:13:54;;;;;;;3.63;2.42;;;;;;;21.37;52.55;98533.88;6303676;22;20018;-84
2022/08/29 08:16:24;;;;;;;3.42;2.38;;;;;;;21.37;53.33;98531.19;6303680;22;20015;-83
2022/08/29 08:18:53;;;;;;;3.08;2.20;;;;;;;21.47;54.21;98525.94;6303430;22;20042;-81
2022/08/29 08:21:21;;;;;;;2.90;2.05;;;;;;;21.66;54.70;98531.59;6303664;22;20015;-82
2022/08/29 08:23:48;;;;;;;4.85;2.10;;;;;;;21.81;53.54;98528.97;6277923;22;20020;-82
2022/08/29 08:26:16;;;;;;;3.67;2.38;;;;;;;21.91;53.80;98530.91;6306840;22;20015;-84
2022/08/29 08:28:43;;;;;;;2.83;1.77;;;;;;;22.10;52.44;98529.38;6304029;22;20011;-83
2022/08/29 08:31:14;;;;;;;2.95;2.08;;;;;;;22.16;52.97;98530.97;6250974;22;20043;-83
2022/08/29 08:33:43;;;;;;;3.35;2.30;;;;;;;22.13;52.61;98515.50;6302812;22;20011;-82
2022/08/29 08:36:22;;;;;;;2.85;2.22;;;;;;;22.32;51.70;98525.69;6304399;22;20050;-83
2022/08/29 08:38:53;;;;;;;4.15;1.98;;;;;;;22.47;51.38;98516.88;6303748;22;20019;-82
2022/08/29 08:41:26;;;;;;;3.20;2.05;;;;;;;22.66;53.02;98534.78;6304186;22;20041;-83
2022/08/29 08:44:06;;;;;;;3.03;2.20;;;;;;;22.60;50.78;98527.03;6303585;22;20102;-82
2022/08/29 08:46:43;;;;;;;4.15;2.75;;;;;;;22.71;51.83;98526.75;6277367;22;20407;-83
2022/08/29 08:49:36;;;;;;;3.63;2.25;;;;;;;22.69;50.39;98525.44;6303393;22;20321;-84
2022/08/29 08:52:19;;;;;;;3.85;2.50;;;;;;;22.76;50.52;98511.78;6303745;22;20011;-84
2022/08/29 08:54:54;;;;;;;4.53;1.98;;;;;;;22.91;51.33;98520.66;6300807;22;20099;-84
2022/08/29 08:57:30;;;;;;;3.35;1.98;;;;;;;22.92;50.70;98510.75;6300152;22;20023;-84
2022/08/29 08:59:58;;;;;;;3.40;2.00;;;;;;;23.08;50.54;98503.47;6305800;22;20653;-85
2022/08/29 09:02:54;;;;;;;2.45;2.13;;;;;;;23.26;51.09;98513.59;6303668;22;20019;-83
2022/08/29 09:06:16;;;;;;;2.28;1.88;;;;;;;23.24;50.20;98503.19;6302233;22;20019;-83
2022/08/29 09:09:16;;;;;;;3.05;2.20;;;;;;;23.41;50.47;98502.06;6207846;23;20028;-82
2022/08/29 09:11:53;;;;;;;2.47;2.10;;;;;;;23.62;50.45;98518.88;6209152;23;20021;-84
2022/08/29 09:14:45;;;;;;;2.97;2.08;;;;;;;23.65;49.83;98523.69;6283237;22;20031;-85
2022/08/29 09:17:22;;;;;;;3.85;2.20;;;;;;;23.63;49.57;98525.81;6276826;22;20043;-85
2022/08/29 09:19:50;;;;;;;4.47;2.50;;;;;;;23.47;49.69;98517.03;6275447;22;20015;-85
2022/08/29 09:22:28;;;;;;;4.13;2.70;;;;;;;23.50;48.50;98527.19;6274095;22;20030;-83
2022/08/29 09:25:06;;;;;;;3.55;2.00;;;;;;;23.61;47.81;98519.91;6276609;22;20022;-84
2022/08/29 09:27:36;;;;;;;3.90;2.00;;;;;;;23.72;47.62;98508.91;6274564;22;20106;-83
2022/08/29 09:30:23;;;;;;;3.00;2.10;;;;;;;23.83;47.64;98519.59;6303768;22;20015;-84
2022/08/29 09:33:03;;;;;;;2.65;1.83;;;;;;;23.93;47.23;98524.88;6277025;22;20329;-85
2022/08/29 09:35:43;;;;;;;2.90;2.10;;;;;;;24.03;46.63;98535.56;6303862;22;20046;-84
2022/08/29 09:38:16;;;;;;;2.83;1.73;;;;;;;24.14;47.27;98531.75;6304547;22;20015;-87
2022/08/29 09:41:00;;;;;;;4.30;2.30;;;;;;;24.08;45.61;98526.69;6301898;22;20626;-86
2022/08/29 09:43:39;;;;;;;3.38;2.33;;;;;;;24.09;46.05;98522.94;6303342;22;20357;-84
2022/08/29 09:46:20;;;;;;;3.72;2.80;;;;;;;23.93;46.47;98519.53;6304665;22;20015;-85
2022/08/29 09:49:16;;;;;;;3.90;2.78;;;;;;;23.97;48.32;98517.91;6302028;22;20734;-84
2022/08/29 09:51:48;;;;;;;2.85;2.22;;;;;;;24.16;46.93;98526.91;6307436;22;20011;-84
2022/08/29 09:54:31;;;;;;;3.55;2.40;;;;;;;24.28;46.64;98523.88;6303378;22;20065;-85
2022/08/29 09:57:18;;;;;;;3.70;2.40;;;;;;;24.37;45.91;98524.13;6304842;22;20080;-84
2022/08/29 09:59:49;;;;;;;6.05;3.17;;;;;;;24.32;47.42;98521.44;6277837;22;20019;-85
2022/08/29 10:02:26;;;;;;;7.68;2.78;;;;;;;24.41;47.60;98515.25;6278464;22;20030;-86
2022/08/29 10:05:00;;;;;;;3.35;2.72;;;;;;;24.47;47.07;98518.66;6277100;22;20011;-83
2022/08/29 10:07:44;;;;;;;4.50;3.03;;;;;;;24.38;47.15;98509.63;6305441;22;20030;-84
2022/08/29 10:10:19;;;;;;;3.10;2.60;;;;;;;24.48;47.22;98504.22;6307359;22;20467;-84
2022/08/29 10:13:18;;;;;;;3.28;2.95;;;;;;;24.67;47.57;98513.16;6252554;22;20352;-85
2022/08/29 10:16:26;;;;;;;4.63;3.35;;;;;;;24.48;46.42;98504.22;6303410;22;20878;-83
2022/08/29 10:18:59;;;;;;;3.83;2.65;;;;;;;24.72;48.00;98513.13;6305728;22;20106;-85
2022/08/29 10:21:52;;;;;;;5.28;3.97;;;;;;;24.68;46.36;98508.59;6277889;22;20023;-84
2022/08/29 10:24:52;;;;;;;3.88;2.90;;;;;;;24.80;46.56;98507.16;6296270;22;20473;-83
2022/08/29 10:27:50;;;;;;;3.55;3.03;;;;;;;24.92;47.41;98514.03;6275015;22;20027;-85
2022/08/29 10:30:30;;;;;;;3.55;2.95;;;;;;;24.98;46.01;98507.53;6273476;22;20019;-85
2022/08/29 10:33:48;;;;;;;2.97;2.58;;;;;;;25.19;44.91;98508.13;6246669;22;20016;-84
2022/08/29 10:36:38;;;;;;;4.18;3.00;;;;;;;25.28;45.51;98496.50;6173634;22;20432;-86
2022/08/29 10:39:25;;;;;;;3.97;3.22;;;;;;;25.31;45.59;98505.88;6246173;22;20490;-83
2022/08/29 10:42:08;;;;;;;3.20;2.90;;;;;;;25.35;45.53;98496.94;6248393;22;20020;-85
2022/08/29 10:45:05;;;;;;;5.18;3.25;;;;;;;25.38;45.64;98500.16;6249177;22;20019;-83
2022/08/29 10:48:04;;;;;;;3.38;3.08;;;;;;;25.59;44.69;98502.31;6276385;22;20016;-85
2022/08/29 10:51:00;;;;;;;3.65;3.20;;;;;;;25.64;45.16;98509.50;6245715;22;20091;-85
2022/08/29 10:53:40;;;;;;;3.30;2.47;;;;;;;25.87;43.05;98497.94;6248470;22;20008;-84
2022/08/29 10:56:41;;;;;;;3.00;2.60;;;;;;;26.03;42.49;98495.84;6251435;22;20030;-85
2022/08/29 10:59:49;;;;;;;2.90;2.60;;;;;;;26.07;42.54;98507.59;6277070;22;20554;-85
2022/08/29 11:02:44;;;;;;;3.35;2.75;;;;;;;26.22;41.92;98497.75;6272946;22;20030;-85
2022/08/29 11:05:50;;;;;;;3.38;3.08;;;;;;;26.39;41.15;98488.06;6275329;22;20073;-84
2022/08/29 11:08:32;;;;;;;4.53;3.08;;;;;;;26.48;41.93;98487.41;6278193;22;20099;-84
2022/08/29 11:10:59;;;;;;;5.32;2.92;;;;;;;26.64;41.50;98494.94;6277466;22;20019;-84
2022/08/29 11:13:42;;;;;;;3.53;3.22;;;;;;;26.91;40.69;98490.69;6276181;22;20016;-86
2022/08/29 11:16:20;;;;;;;3.13;2.55;;;;;;;27.31;43.08;98497.25;6274942;22;20024;-84
2022/08/29 11:19:33;;;;;;;3.55;2.90;;;;;;;27.31;40.82;98496.47;6274813;22;20042;-85
2022/08/29 11:22:17;;;;;;;2.90;2.60;;;;;;;27.23;41.42;98489.88;6249743;22;20015;-85
2022/08/29 11:24:56;;;;;;;3.88;3.45;;;;;;;26.91;40.97;98493.38;6275641;22;20047;-84
2022/08/29 11:28:34;;;;;;;4.70;3.17;;;;;;;26.89;40.69;98496.38;6248576;22;20494;-84
2022/08/29 11:31:25;;;;;;;5.13;3.85;;;;;;;27.04;39.54;98491.81;6225554;22;20094;-85
2022/08/29 11:34:34;;;;;;;4.82;3.00;;;;;;;26.94;39.85;98480.16;6276265;22;20012;-87
2022/08/29 11:37:54;;;;;;;3.80;2.97;;;;;;;27.16;40.85;98497.53;6276953;22;20098;-87
2022/08/29 11:40:39;;;;;;;4.30;2.95;;;;;;;26.82;40.38;98489.81;6248713;22;20058;-84
2022/08/29 11:43:28;;;;;;;3.75;3.33;;;;;;;26.73;39.68;98489.66;6273949;22;20046;-87
2022/08/29 11:46:12;;;;;;;4.05;3.65;;;;;;;26.38;39.92;98482.94;6244533;22;20020;-86
2022/08/29 11:48:46;;;;;;;5.43;3.05;;;;;;;26.59;40.40;98483.47;6275643;22;20020;-85
2022/08/29 11:51:36;;;;;;;3.90;2.83;;;;;;;26.55;40.70;98487.81;6247397;22;20026;-84
2022/08/29 11:54:25;;;;;;;2.77;2.50;;;;;;;26.49;40.39;98480.94;6279332;22;20012;-85
2022/08/29 11:57:11;;;;;;;3.17;2.50;;;;;;;26.69;38.66;98480.59;6274761;22;20029;-84
2022/08/29 12:00:02;;;;;;;3.08;2.78;;;;;;;26.77;39.86;98462.97;6256275;22;20038;-83
2022/08/29 12:02:48;;;;;;;2.95;2.67;;;;;;;26.91;40.50;98469.97;6254210;22;20030;-86
2022/08/29 12:05:58;;;;;;;4.72;3.38;;;;;;;27.02;40.18;98462.50;6274233;22;20034;-87
2022/08/29 12:09:00;;;;;;;4.50;3.00;;;;;;;26.92;38.69;98466.16;6272470;22;20030;-87
2022/08/29 12:11:57;;;;;;;3.10;2.70;;;;;;;27.01;38.94;98469.00;6248458;22;20461;-88
2022/08/29 12:14:42;;;;;;;3.38;2.92;;;;;;;27.09;39.28;98462.94;6275727;22;20306;-84